Time;durP1;ratioP1;P1;durP2;ratioP2;P2;SDS_P1;SDS_P2;PMS_P1;PMS_P2;Temp;Humidity;BMP_temperature;BMP_pressure;BME280_temperature;BME280_humidity;BME280_pressure;Samples;Min_cycle;Max_cycle;Signal;HPM_P1;HPM_P2
2021/06/06 00:01:15;;;;;;;11.20;9.10;;;19.40;99.90;;;;;;5092958;28;20435;-51
2021/06/06 00:03:45;;;;;;;10.40;9.30;;;19.40;99.90;;;;;;5092211;28;20207;-50
2021/06/06 00:06:12;;;;;;;8.07;7.30;;;19.50;99.90;;;;;;5093676;28;20457;-53
2021/06/06 00:08:39;;;;;;;7.80;7.07;;;19.30;99.90;;;;;;5093776;28;20774;-54
2021/06/06 00:11:15;;;;;;;9.03;8.17;;;19.10;99.90;;;;;;5093619;28;20495;-51
2021/06/06 00:13:41;;;;;;;7.90;7.10;;;19.20;99.90;;;;;;5093639;28;20418;-51
2021/06/06 00:16:19;;;;;;;10.63;7.53;;;19.30;99.90;;;;;;5093617;28;20423;-54
2021/06/06 00:18:46;;;;;;;8.30;7.50;;;19.30;99.90;;;;;;5093482;28;20438;-53
2021/06/06 00:21:11;;;;;;;11.37;8.83;;;19.30;99.90;;;;;;5093591;28;20407;-53
2021/06/06 00:23:37;;;;;;;8.17;7.37;;;19.20;99.90;;;;;;5093663;28;20407;-53
2021/06/06 00:26:04;;;;;;;9.80;8.37;;;19.20;99.90;;;;;;5075145;28;20193;-50
2021/06/06 00:28:31;;;;;;;9.50;8.60;;;19.20;99.90;;;;;;5093006;28;20552;-50
2021/06/06 00:31:02;;;;;;;8.90;8.00;;;19.20;99.90;;;;;;5093112;28;20415;-54
2021/06/06 00:33:28;;;;;;;9.77;7.40;;;19.20;99.90;;;;;;5093358;28;20400;-53
2021/06/06 00:35:54;;;;;;;6.80;6.20;;;19.30;99.90;;;;;;5093019;28;20427;-53
2021/06/06 00:38:20;;;;;;;7.80;7.10;;;19.30;99.90;;;;;;5093344;28;20443;-50
2021/06/06 00:40:46;;;;;;;8.03;7.20;;;19.30;99.90;;;;;;5093358;28;20494;-54
2021/06/06 00:43:11;;;;;;;6.93;6.23;;;19.20;99.90;;;;;;5097434;28;20170;-52
2021/06/06 00:45:38;;;;;;;8.77;7.17;;;18.70;99.90;;;;;;5097501;28;20272;-53
2021/06/06 00:48:07;;;;;;;10.27;7.60;;;18.80;99.90;;;;;;5097406;28;20165;-52
2021/06/06 00:50:42;;;;;;;7.53;6.83;;;18.90;99.90;;;;;;5097399;28;20407;-52
2021/06/06 00:53:22;;;;;;;8.23;7.43;;;19.00;99.90;;;;;;5097529;28;20423;-51
2021/06/06 00:55:50;;;;;;;8.30;7.50;;;19.00;99.90;;;;;;5097499;28;20453;-53
2021/06/06 00:58:15;;;;;;;7.30;6.60;;;19.00;99.90;;;;;;5097227;28;20820;-50
2021/06/06 01:00:48;;;;;;;7.10;6.50;;;19.10;99.90;;;;;;5097395;28;20399;-51
2021/06/06 01:03:16;;;;;;;7.60;6.90;;;19.10;99.90;;;;;;5097983;28;20165;-50
2021/06/06 01:06:12;;;;;;;9.17;8.27;;;19.10;99.90;;;;;;5097049;28;20499;-50
2021/06/06 01:08:39;;;;;;;7.23;6.30;;;19.20;99.90;;;;;;5091853;28;20947;-53
2021/06/06 01:11:30;;;;;;;7.77;6.30;;;19.10;99.90;;;;;;5077526;28;20419;-53
2021/06/06 01:14:00;;;;;;;6.77;6.10;;;19.10;99.90;;;;;;5079640;28;20759;-53
2021/06/06 01:16:38;;;;;;;7.40;6.70;;;18.90;99.90;;;;;;5096491;28;20496;-52
2021/06/06 01:19:36;;;;;;;6.47;5.87;;;19.00;99.90;;;;;;5096786;28;20422;-50
2021/06/06 01:22:08;;;;;;;8.77;7.97;;;19.20;99.90;;;;;;5096727;28;20466;-50
2021/06/06 01:24:52;;;;;;;8.13;7.00;;;19.10;99.90;;;;;;5096804;28;20384;-54
2021/06/06 01:27:23;;;;;;;5.73;5.23;;;18.90;99.90;;;;;;5083258;28;20404;-50
2021/06/06 01:30:13;;;;;;;7.80;6.13;;;18.80;99.90;;;;;;5076803;28;20389;-51
2021/06/06 01:32:47;;;;;;;6.80;6.20;;;18.80;99.90;;;;;;5076667;28;20852;-53
2021/06/06 01:35:19;;;;;;;6.17;5.63;;;18.90;99.90;;;;;;5076200;28;20481;-53
2021/06/06 01:37:51;;;;;;;7.10;6.40;;;18.90;99.90;;;;;;5076211;28;20850;-51
2021/06/06 01:40:21;;;;;;;6.97;6.37;;;18.90;99.90;;;;;;5075886;28;20385;-52
2021/06/06 01:42:53;;;;;;;6.80;6.20;;;18.90;99.90;;;;;;5075773;28;20396;-54
2021/06/06 01:45:28;;;;;;;6.57;5.97;;;18.90;99.90;;;;;;5076124;28;20417;-53
2021/06/06 01:47:59;;;;;;;7.03;6.33;;;18.90;99.90;;;;;;5076346;28;20423;-52
2021/06/06 01:50:32;;;;;;;6.97;6.27;;;18.80;99.90;;;;;;5075972;28;20427;-53
2021/06/06 01:53:00;;;;;;;7.00;6.40;;;18.90;99.90;;;;;;5074838;28;20384;-53
2021/06/06 01:55:30;;;;;;;6.83;6.23;;;19.00;99.90;;;;;;5076037;28;20485;-51
2021/06/06 01:58:00;;;;;;;6.70;6.10;;;19.00;99.90;;;;;;5076042;28;20444;-53
2021/06/06 02:00:34;;;;;;;5.87;5.23;;;18.80;99.90;;;;;;5076012;28;20405;-54
2021/06/06 02:03:02;;;;;;;6.57;5.97;;;18.80;99.90;;;;;;5082310;28;20942;-51
2021/06/06 02:05:28;;;;;;;6.20;5.40;;;18.90;99.90;;;;;;5117816;22;20996;-55
2021/06/06 02:07:54;;;;;;;6.47;5.87;;;18.90;99.90;;;;;;5075686;28;20404;-55
2021/06/06 02:10:28;;;;;;;7.07;6.20;;;18.80;99.90;;;;;;5074953;28;20166;-54
2021/06/06 02:13:10;;;;;;;6.67;6.03;;;18.90;99.90;;;;;;5075637;28;20442;-54
2021/06/06 02:15:37;;;;;;;5.27;4.70;;;18.60;99.90;;;;;;5075307;28;20955;-56
2021/06/06 02:18:05;;;;;;;6.80;6.20;;;18.50;99.90;;;;;;5075093;28;20486;-55
2021/06/06 02:20:35;;;;;;;7.27;6.57;;;18.70;99.90;;;;;;5075388;28;20406;-56
2021/06/06 02:23:01;;;;;;;5.80;5.30;;;18.70;99.90;;;;;;5075130;28;20466;-56
2021/06/06 02:25:28;;;;;;;5.73;5.23;;;18.80;99.90;;;;;;5075241;28;20405;-56
2021/06/06 02:28:05;;;;;;;5.37;4.87;;;18.90;99.90;;;;;;5075226;28;20415;-56
2021/06/06 02:30:53;;;;;;;5.50;5.10;;;18.80;99.90;;;;;;5075227;28;20403;-56
2021/06/06 02:33:30;;;;;;;6.07;5.47;;;18.80;99.90;;;;;;5074918;28;20391;-57
2021/06/06 02:36:03;;;;;;;5.30;4.80;;;18.70;99.90;;;;;;5074768;28;20423;-57
2021/06/06 02:38:37;;;;;;;6.63;6.03;;;18.80;99.90;;;;;;5075080;28;20444;-55
2021/06/06 02:41:29;;;;;;;6.60;6.00;;;18.80;99.90;;;;;;5074694;28;20488;-57
2021/06/06 02:43:56;;;;;;;6.00;5.40;;;18.70;99.90;;;;;;5051268;28;20458;-55
2021/06/06 02:46:24;;;;;;;6.10;5.60;;;18.70;99.90;;;;;;5074631;28;20420;-57
2021/06/06 02:48:54;;;;;;;8.07;5.40;;;18.70;99.90;;;;;;5074839;28;20414;-57
2021/06/06 02:51:23;;;;;;;7.40;5.93;;;18.70;99.90;;;;;;5074883;28;20380;-53
2021/06/06 02:54:04;;;;;;;6.40;5.77;;;18.70;99.90;;;;;;5074830;28;20411;-56
2021/06/06 02:56:37;;;;;;;5.13;4.63;;;18.80;99.90;;;;;;5074583;28;20929;-55
2021/06/06 02:59:31;;;;;;;6.47;5.80;;;18.70;99.90;;;;;;5074553;28;20432;-54
2021/06/06 03:02:01;;;;;;;6.10;5.13;;;18.50;99.90;;;;;;5066013;28;20516;-55
2021/06/06 03:04:30;;;;;;;6.20;5.60;;;18.40;99.90;;;;;;5092796;28;20387;-55
2021/06/06 03:07:07;;;;;;;7.10;6.43;;;18.50;99.90;;;;;;5094348;28;20580;-54
2021/06/06 03:09:33;;;;;;;5.40;4.90;;;18.70;99.90;;;;;;5094516;28;20383;-54
2021/06/06 03:12:04;;;;;;;5.93;5.33;;;18.70;99.90;;;;;;5094412;28;20407;-54
2021/06/06 03:14:33;;;;;;;5.20;4.70;;;18.80;99.90;;;;;;5094668;28;20764;-55
2021/06/06 03:17:01;;;;;;;5.13;4.73;;;18.80;99.90;;;;;;5094100;28;20418;-53
2021/06/06 03:19:30;;;;;;;4.50;4.10;;;18.70;99.90;;;;;;5094806;28;20404;-52
2021/06/06 03:21:56;;;;;;;4.80;4.27;;;18.70;99.90;;;;;;5094439;28;20395;-49
2021/06/06 03:24:34;;;;;;;4.50;4.10;;;18.60;99.90;;;;;;5094324;28;20761;-52
2021/06/06 03:27:01;;;;;;;5.20;4.70;;;18.70;99.90;;;;;;5094400;28;20791;-53
2021/06/06 03:29:32;;;;;;;5.10;4.50;;;18.70;99.90;;;;;;5094053;28;20431;-53
2021/06/06 03:32:02;;;;;;;6.47;5.80;;;18.60;99.90;;;;;;5094153;28;20380;-54
2021/06/06 03:34:27;;;;;;;7.90;6.40;;;18.40;99.90;;;;;;5094724;28;20400;-56
2021/06/06 03:36:53;;;;;;;5.40;4.37;;;18.20;99.90;;;;;;5093836;28;20762;-55
2021/06/06 03:39:27;;;;;;;6.50;5.50;;;18.20;99.90;;;;;;5093982;28;20245;-54
2021/06/06 03:41:53;;;;;;;6.60;5.90;;;18.00;99.90;;;;;;5094096;28;20394;-54
2021/06/06 03:44:18;;;;;;;9.07;5.80;;;18.10;99.90;;;;;;5094198;28;20833;-55
2021/06/06 03:46:44;;;;;;;10.97;7.20;;;18.20;99.90;;;;;;5093988;28;20509;-54
2021/06/06 03:49:10;;;;;;;9.50;6.43;;;18.30;99.90;;;;;;5093802;28;20215;-53
2021/06/06 03:51:37;;;;;;;8.87;6.80;;;18.00;99.90;;;;;;5093701;28;20167;-55
2021/06/06 03:54:04;;;;;;;6.87;6.17;;;18.00;99.90;;;;;;5093945;28;20456;-54
2021/06/06 03:56:30;;;;;;;12.50;8.20;;;18.20;99.90;;;;;;5093860;28;20928;-55
2021/06/06 03:58:55;;;;;;;7.30;6.60;;;18.00;99.90;;;;;;5093784;28;20586;-56
2021/06/06 04:01:21;;;;;;;9.33;7.20;;;18.00;99.90;;;;;;5085887;28;20173;-55
2021/06/06 04:03:47;;;;;;;9.17;6.30;;;18.00;99.90;;;;;;5074144;28;20302;-55
2021/06/06 04:06:12;;;;;;;8.80;6.30;;;17.90;99.90;;;;;;5069669;28;20212;-55
2021/06/06 04:08:38;;;;;;;9.03;7.07;;;17.80;99.90;;;;;;5092253;28;20176;-52
2021/06/06 04:11:04;;;;;;;7.17;6.10;;;17.90;99.90;;;;;;5093952;28;20226;-51
2021/06/06 04:13:30;;;;;;;6.20;5.50;;;17.80;99.90;;;;;;5093634;28;20220;-54
2021/06/06 04:15:55;;;;;;;9.20;6.67;;;17.70;99.90;;;;;;5093506;28;20204;-54
2021/06/06 04:18:24;;;;;;;8.10;6.97;;;17.70;99.90;;;;;;5093523;28;20200;-53
2021/06/06 04:20:51;;;;;;;7.40;6.07;;;17.80;99.90;;;;;;5073803;28;20173;-53
2021/06/06 04:23:18;;;;;;;7.67;6.07;;;17.60;99.90;;;;;;5073262;28;20817;-55
2021/06/06 04:25:44;;;;;;;6.60;5.80;;;17.70;99.90;;;;;;5072990;28;20523;-56
2021/06/06 04:28:10;;;;;;;7.80;5.80;;;17.80;99.90;;;;;;5073302;28;20408;-55
2021/06/06 04:30:36;;;;;;;9.57;6.63;;;17.70;99.90;;;;;;5073285;28;20419;-56
2021/06/06 04:33:07;;;;;;;7.20;5.33;;;17.80;99.90;;;;;;5073273;28;20413;-55
2021/06/06 04:35:36;;;;;;;6.70;5.50;;;17.90;99.90;;;;;;5073839;28;20250;-54
2021/06/06 04:38:03;;;;;;;8.07;5.00;;;18.00;99.90;;;;;;5073181;28;20986;-55
2021/06/06 04:40:28;;;;;;;9.50;6.60;;;17.90;99.90;;;;;;5073150;28;20407;-55
2021/06/06 04:42:54;;;;;;;6.43;5.70;;;18.00;99.90;;;;;;5073186;28;20535;-54
2021/06/06 04:45:20;;;;;;;5.43;4.30;;;17.80;99.90;;;;;;5072750;28;20173;-55
2021/06/06 04:47:46;;;;;;;7.50;5.70;;;17.80;99.90;;;;;;5073183;28;20661;-56
2021/06/06 04:50:13;;;;;;;7.83;5.97;;;17.80;99.90;;;;;;5073088;28;20399;-53
2021/06/06 04:52:39;;;;;;;9.70;7.00;;;17.50;99.90;;;;;;5072818;28;20254;-54
2021/06/06 04:55:13;;;;;;;8.57;6.60;;;17.50;99.90;;;;;;5073431;28;20403;-54
2021/06/06 04:57:39;;;;;;;7.53;6.83;;;17.50;99.90;;;;;;5092857;28;20562;-49
2021/06/06 05:00:12;;;;;;;8.83;5.83;;;17.60;99.90;;;;;;5093159;28;20398;-54
2021/06/06 05:02:37;;;;;;;8.23;6.27;;;17.60;99.90;;;;;;5092906;28;20168;-55
2021/06/06 05:05:04;;;;;;;7.83;6.33;;;17.50;99.90;;;;;;5092879;28;20399;-53
2021/06/06 05:07:30;;;;;;;8.17;6.40;;;17.50;99.90;;;;;;5092560;28;20283;-55
2021/06/06 05:09:56;;;;;;;10.93;6.97;;;17.60;99.90;;;;;;5093358;28;20951;-53
2021/06/06 05:12:22;;;;;;;7.77;6.97;;;17.50;99.90;;;;;;5092796;28;20172;-56
2021/06/06 05:14:47;;;;;;;7.80;6.13;;;17.70;99.90;;;;;;5092962;28;20407;-55
2021/06/06 05:17:13;;;;;;;7.37;5.50;;;17.70;99.90;;;;;;5092582;28;20209;-55
2021/06/06 05:19:39;;;;;;;7.20;6.17;;;17.50;99.90;;;;;;5093088;28;20168;-55
2021/06/06 05:22:05;;;;;;;7.03;5.47;;;17.50;99.90;;;;;;5092722;28;20160;-55
2021/06/06 05:24:32;;;;;;;8.13;5.93;;;17.70;99.90;;;;;;5092970;28;20172;-55
2021/06/06 05:26:58;;;;;;;7.37;5.70;;;17.90;99.90;;;;;;5093141;28;20483;-55
2021/06/06 05:29:24;;;;;;;6.73;5.90;;;17.90;99.90;;;;;;5096747;28;20410;-55
2021/06/06 05:31:50;;;;;;;6.83;6.00;;;17.70;99.90;;;;;;5096649;28;20406;-52
2021/06/06 05:34:16;;;;;;;7.20;5.83;;;17.60;99.90;;;;;;5096843;28;20449;-52
2021/06/06 05:36:42;;;;;;;8.20;6.90;;;17.40;99.90;;;;;;5096683;28;20826;-56
2021/06/06 05:39:09;;;;;;;8.07;7.20;;;17.50;99.90;;;;;;5096566;28;20588;-51
2021/06/06 05:41:34;;;;;;;8.73;6.50;;;17.30;99.90;;;;;;5096905;28;20533;-55
2021/06/06 05:44:00;;;;;;;7.87;6.90;;;17.30;99.90;;;;;;5096162;28;20410;-55
2021/06/06 05:46:26;;;;;;;8.27;7.47;;;17.40;99.90;;;;;;5096057;28;20278;-54
2021/06/06 05:48:51;;;;;;;7.73;6.90;;;17.50;99.90;;;;;;5095968;28;20249;-54
2021/06/06 05:51:18;;;;;;;7.57;6.77;;;17.40;99.90;;;;;;5095958;28;20552;-54
2021/06/06 05:53:43;;;;;;;7.23;6.53;;;17.50;99.90;;;;;;5096019;28;20179;-53
2021/06/06 05:56:10;;;;;;;8.80;7.20;;;17.80;99.90;;;;;;5086577;28;20823;-54
2021/06/06 05:58:37;;;;;;;9.30;7.40;;;17.70;99.90;;;;;;5073125;28;20186;-55
2021/06/06 06:01:03;;;;;;;10.60;8.17;;;17.60;99.90;;;;;;5055914;28;20404;-52
2021/06/06 06:03:28;;;;;;;8.30;7.50;;;17.40;99.90;;;;;;5037843;28;20558;-53
2021/06/06 06:05:54;;;;;;;7.40;6.70;;;17.20;99.90;;;;;;5055400;28;20196;-55
2021/06/06 06:08:33;;;;;;;7.07;6.27;;;17.30;99.90;;;;;;5055706;28;20207;-54
2021/06/06 06:10:59;;;;;;;8.40;7.50;;;17.50;99.90;;;;;;5055657;28;20184;-56
2021/06/06 06:13:28;;;;;;;10.03;9.00;;;17.50;99.90;;;;;;5055250;28;20851;-56
2021/06/06 06:15:54;;;;;;;9.10;7.83;;;17.50;99.90;;;;;;5055331;28;20837;-56
2021/06/06 06:18:22;;;;;;;11.20;9.47;;;17.60;99.90;;;;;;5055062;28;20447;-53
2021/06/06 06:20:48;;;;;;;9.03;8.03;;;17.60;99.90;;;;;;5055134;28;20426;-55
2021/06/06 06:23:13;;;;;;;8.30;7.43;;;17.50;99.90;;;;;;5055145;28;20410;-51
2021/06/06 06:25:39;;;;;;;8.40;7.60;;;17.50;99.90;;;;;;5054978;28;20945;-55
2021/06/06 06:28:06;;;;;;;10.60;8.70;;;17.20;99.90;;;;;;5037223;28;20181;-56
2021/06/06 06:30:34;;;;;;;9.03;8.23;;;17.40;99.90;;;;;;5054844;28;20650;-54
2021/06/06 06:33:00;;;;;;;9.43;8.07;;;17.30;99.90;;;;;;5055331;28;20902;-55
2021/06/06 06:35:27;;;;;;;9.10;8.20;;;17.30;99.90;;;;;;5054721;28;20465;-55
2021/06/06 06:37:54;;;;;;;10.87;9.77;;;17.40;99.90;;;;;;5054684;28;20546;-56
2021/06/06 06:40:20;;;;;;;10.00;9.03;;;17.40;99.90;;;;;;5054325;28;20754;-56
2021/06/06 06:42:47;;;;;;;8.83;7.90;;;17.50;99.90;;;;;;5054911;28;20412;-56
2021/06/06 06:45:15;;;;;;;9.10;7.87;;;17.60;99.90;;;;;;5054598;28;20408;-56
2021/06/06 06:47:41;;;;;;;13.63;12.23;;;17.50;99.90;;;;;;5054597;28;20395;-57
2021/06/06 06:50:09;;;;;;;13.20;12.00;;;17.70;99.90;;;;;;5054466;28;20979;-56
2021/06/06 06:52:38;;;;;;;33.03;29.93;;;17.60;99.90;;;;;;5054673;28;20170;-56
2021/06/06 06:55:10;;;;;;;11.20;8.80;;;17.60;99.90;;;;;;5060006;28;20438;-56
2021/06/06 06:57:36;;;;;;;16.27;14.77;;;17.60;99.90;;;;;;5074019;28;20466;-57
2021/06/06 07:00:06;;;;;;;16.47;14.87;;;17.80;99.90;;;;;;5074603;28;20407;-56
2021/06/06 07:02:32;;;;;;;11.83;10.73;;;17.70;99.90;;;;;;5074196;28;20195;-56
2021/06/06 07:04:57;;;;;;;14.00;12.77;;;17.60;99.90;;;;;;5074175;28;20398;-56
2021/06/06 07:07:24;;;;;;;13.53;12.40;;;17.70;99.90;;;;;;5073918;28;20220;-55
2021/06/06 07:09:50;;;;;;;8.10;7.40;;;17.70;99.90;;;;;;5074393;28;20178;-56
2021/06/06 07:12:15;;;;;;;12.10;10.90;;;17.70;99.90;;;;;;5074189;28;20408;-57
2021/06/06 07:14:41;;;;;;;9.50;8.60;;;17.80;99.90;;;;;;5074317;28;20172;-56
2021/06/06 07:17:07;;;;;;;12.77;11.57;;;17.90;99.90;;;;;;5074078;28;20194;-57
2021/06/06 07:19:32;;;;;;;11.20;10.13;;;18.00;99.90;;;;;;5073977;28;20177;-56
2021/06/06 07:21:58;;;;;;;10.03;9.23;;;18.20;99.90;;;;;;5072666;28;20200;-55
2021/06/06 07:24:24;;;;;;;10.70;9.70;;;17.90;99.90;;;;;;5060312;28;20174;-56
2021/06/06 07:26:50;;;;;;;10.13;8.17;;;17.90;99.90;;;;;;5073727;28;20248;-55
2021/06/06 07:29:19;;;;;;;11.50;10.30;;;17.60;99.90;;;;;;5073807;28;20711;-56
2021/06/06 07:31:48;;;;;;;9.10;8.30;;;17.70;99.90;;;;;;5074100;28;20487;-56
2021/06/06 07:34:14;;;;;;;7.83;7.03;;;17.60;99.90;;;;;;5073781;28;20443;-55
2021/06/06 07:36:40;;;;;;;8.60;7.70;;;17.70;99.90;;;;;;5073948;28;20817;-52
2021/06/06 07:39:06;;;;;;;11.80;8.60;;;17.80;99.90;;;;;;5073670;28;20501;-55
2021/06/06 07:41:32;;;;;;;8.60;7.37;;;17.70;99.90;;;;;;5073648;28;20908;-55
2021/06/06 07:43:58;;;;;;;10.00;7.63;;;17.60;99.90;;;;;;5073870;28;20165;-55
2021/06/06 07:46:24;;;;;;;9.97;8.80;;;17.60;99.90;;;;;;5073406;28;20276;-54
2021/06/06 07:48:50;;;;;;;10.23;9.17;;;17.80;99.90;;;;;;5073541;28;20403;-55
2021/06/06 07:51:16;;;;;;;12.57;9.83;;;17.90;99.90;;;;;;5072553;28;20456;-52
2021/06/06 07:53:41;;;;;;;8.27;7.43;;;17.70;99.90;;;;;;5073783;28;20536;-58
2021/06/06 07:56:07;;;;;;;10.47;9.10;;;17.60;99.90;;;;;;5072405;28;20689;-56
2021/06/06 07:58:36;;;;;;;12.23;8.80;;;17.80;99.90;;;;;;5070978;28;20273;-54
2021/06/06 08:01:05;;;;;;;10.93;9.70;;;17.80;99.90;;;;;;5073406;28;20177;-58
2021/06/06 08:03:30;;;;;;;12.40;8.57;;;17.50;99.90;;;;;;5073393;28;20400;-58
2021/06/06 08:06:01;;;;;;;9.30;8.30;;;17.50;99.90;;;;;;5090905;22;20458;-59
2021/06/06 08:08:27;;;;;;;11.33;10.10;;;17.60;99.90;;;;;;5073585;28;20203;-60
2021/06/06 08:10:56;;;;;;;12.80;10.00;;;17.50;99.90;;;;;;5073429;28;20767;-61
2021/06/06 08:13:22;;;;;;;15.13;10.73;;;17.60;99.90;;;;;;5073602;28;20209;-61
2021/06/06 08:15:48;;;;;;;11.30;10.10;;;17.50;99.90;;;;;;5072662;28;20494;-60
2021/06/06 08:18:18;;;;;;;10.30;9.30;;;17.40;99.90;;;;;;5053462;28;20517;-60
2021/06/06 08:20:52;;;;;;;18.93;11.60;;;17.40;99.90;;;;;;5053811;28;20396;-59
2021/06/06 08:23:19;;;;;;;12.07;9.93;;;17.30;99.90;;;;;;5053598;28;20400;-60
2021/06/06 08:25:44;;;;;;;11.43;10.20;;;17.30;99.90;;;;;;5053059;28;20909;-60
2021/06/06 08:28:12;;;;;;;14.70;11.03;;;17.20;99.90;;;;;;5053475;28;20415;-60
2021/06/06 08:30:42;;;;;;;15.20;11.57;;;17.30;99.90;;;;;;5053498;28;20521;-60
2021/06/06 08:33:09;;;;;;;12.97;10.93;;;17.30;99.90;;;;;;5053443;28;20401;-60
2021/06/06 08:35:35;;;;;;;13.67;10.07;;;17.20;99.90;;;;;;5053344;28;20408;-60
2021/06/06 08:38:02;;;;;;;12.60;10.27;;;17.10;99.90;;;;;;5052964;28;20451;-60
2021/06/06 08:40:35;;;;;;;16.57;12.17;;;17.40;99.90;;;;;;5035230;28;20420;-59
2021/06/06 08:43:03;;;;;;;14.70;11.10;;;17.50;99.90;;;;;;5053147;28;20398;-60
2021/06/06 08:45:37;;;;;;;13.53;10.63;;;17.60;99.90;;;;;;5053420;28;20951;-59
2021/06/06 08:48:06;;;;;;;14.53;11.37;;;17.70;99.90;;;;;;5053645;28;20411;-59
2021/06/06 08:50:38;;;;;;;11.63;10.10;;;17.50;99.90;;;;;;5053304;28;20400;-61
2021/06/06 08:53:24;;;;;;;14.43;10.87;;;17.70;99.90;;;;;;5053332;28;20815;-60
2021/06/06 08:56:15;;;;;;;14.47;11.67;;;17.80;99.90;;;;;;5035921;28;20404;-59
2021/06/06 08:58:47;;;;;;;17.20;11.80;;;17.80;99.90;;;;;;5044114;28;20452;-57
2021/06/06 09:01:21;;;;;;;15.20;12.70;;;17.80;99.90;;;;;;5053283;28;20378;-56
2021/06/06 09:03:52;;;;;;;14.33;11.10;;;17.60;99.90;;;;;;5056553;28;20457;-58
2021/06/06 09:06:34;;;;;;;14.60;12.17;;;17.80;99.90;;;;;;5056842;28;20451;-59
2021/06/06 09:09:00;;;;;;;15.10;12.00;;;17.80;99.90;;;;;;5057052;28;20400;-60
2021/06/06 09:11:29;;;;;;;14.47;11.33;;;17.80;99.90;;;;;;5056770;28;20499;-60
2021/06/06 09:13:56;;;;;;;19.20;14.03;;;17.80;99.90;;;;;;5056878;28;20412;-60
2021/06/06 09:16:29;;;;;;;15.47;11.90;;;17.80;99.90;;;;;;5056871;28;20431;-57
2021/06/06 09:19:06;;;;;;;15.10;12.70;;;17.90;99.90;;;;;;5056481;28;20546;-59
2021/06/06 09:21:32;;;;;;;17.90;14.10;;;17.80;99.90;;;;;;5056719;28;20780;-58
2021/06/06 09:24:11;;;;;;;14.83;12.80;;;17.70;99.90;;;;;;5056896;28;20489;-59
2021/06/06 09:26:37;;;;;;;15.70;13.30;;;17.80;99.90;;;;;;5056337;28;20488;-57
2021/06/06 09:29:20;;;;;;;16.17;14.37;;;17.60;99.90;;;;;;5056674;28;20419;-58
2021/06/06 09:31:46;;;;;;;17.10;15.30;;;17.40;99.90;;;;;;5056641;28;20481;-57
2021/06/06 09:34:20;;;;;;;15.73;12.77;;;17.20;99.90;;;;;;5056646;28;20432;-58
2021/06/06 09:37:15;;;;;;;16.70;13.80;;;17.30;99.90;;;;;;5057150;28;20511;-56
2021/06/06 09:39:44;;;;;;;17.10;13.50;;;17.30;99.90;;;;;;5056350;28;20419;-58
2021/06/06 09:42:39;;;;;;;16.43;13.93;;;17.40;99.90;;;;;;5056688;28;20760;-56
2021/06/06 09:45:33;;;;;;;15.97;14.13;;;17.40;99.90;;;;;;5056832;28;20870;-58
2021/06/06 09:48:15;;;;;;;15.57;13.67;;;17.60;99.90;;;;;;5056468;28;20417;-56
2021/06/06 09:50:45;;;;;;;15.80;13.70;;;17.80;99.90;;;;;;5056384;28;20442;-56
2021/06/06 09:53:17;;;;;;;15.03;13.13;;;17.80;99.90;;;;;;5038700;28;20452;-56
2021/06/06 09:55:43;;;;;;;15.03;13.43;;;17.80;99.90;;;;;;5057345;28;20446;-57
2021/06/06 09:58:32;;;;;;;15.90;13.30;;;17.80;99.90;;;;;;5056099;28;20444;-57
2021/06/06 10:01:06;;;;;;;20.43;16.10;;;18.10;99.90;;;;;;5056186;28;20917;-58
2021/06/06 10:03:58;;;;;;;21.90;18.30;;;18.00;99.90;;;;;;5055999;28;20748;-58
2021/06/06 10:06:30;;;;;;;20.90;18.70;;;17.90;99.90;;;;;;5057626;28;21001;-52
2021/06/06 10:09:00;;;;;;;25.73;22.00;;;17.70;99.90;;;;;;5076191;28;20455;-50
2021/06/06 10:12:01;;;;;;;23.77;21.20;;;17.80;99.90;;;;;;5076049;28;20407;-51
2021/06/06 10:14:48;;;;;;;22.30;19.67;;;18.10;99.90;;;;;;5074650;28;20510;-57
2021/06/06 10:17:19;;;;;;;23.73;20.30;;;18.20;99.90;;;;;;5075716;28;20503;-56
2021/06/06 10:20:02;;;;;;;26.20;22.63;;;18.20;99.90;;;;;;5076077;28;20425;-58
2021/06/06 10:22:33;;;;;;;25.50;22.90;;;18.30;99.90;;;;;;5075876;28;20388;-57
2021/06/06 10:25:09;;;;;;;29.90;24.23;;;18.10;99.90;;;;;;5075354;28;20381;-56
2021/06/06 10:27:42;;;;;;;24.53;19.70;;;18.00;99.90;;;;;;5075372;28;20935;-57
2021/06/06 10:30:43;;;;;;;25.43;20.70;;;18.10;99.90;;;;;;5075961;28;20424;-57
2021/06/06 10:33:27;;;;;;;34.33;24.87;;;18.20;99.90;;;;;;5075250;28;20439;-57
2021/06/06 10:35:53;;;;;;;27.33;23.83;;;18.20;99.90;;;;;;5075735;28;20396;-58
2021/06/06 10:38:20;;;;;;;27.80;23.70;;;18.00;99.90;;;;;;5074983;28;20555;-57
2021/06/06 10:40:52;;;;;;;27.10;24.17;;;17.90;99.90;;;;;;5057266;28;20400;-57
2021/06/06 10:43:36;;;;;;;29.80;26.03;;;18.00;99.90;;;;;;5075214;28;20806;-57
2021/06/06 10:46:24;;;;;;;32.73;28.30;;;17.80;99.90;;;;;;5075617;28;20423;-57
2021/06/06 10:49:01;;;;;;;27.93;24.97;;;17.70;99.90;;;;;;5076670;28;20490;-61
2021/06/06 10:51:39;;;;;;;29.60;24.97;;;17.90;99.90;;;;;;5075322;28;20889;-58
2021/06/06 10:54:23;;;;;;;32.27;24.57;;;18.00;99.90;;;;;;5076176;28;20407;-58
2021/06/06 10:56:54;;;;;;;33.10;28.30;;;18.10;99.90;;;;;;5074932;28;20427;-57
2021/06/06 10:59:34;;;;;;;32.67;28.90;;;18.00;99.90;;;;;;5074948;28;20467;-59
2021/06/06 11:02:00;;;;;;;32.00;28.37;;;18.00;99.90;;;;;;5074915;28;20434;-60
2021/06/06 11:04:47;;;;;;;34.50;28.97;;;18.20;99.90;;;;;;5074585;28;20511;-58
2021/06/06 11:07:18;;;;;;;42.30;32.80;;;18.30;99.90;;;;;;5074288;28;20474;-58
2021/06/06 11:09:56;;;;;;;41.60;34.20;;;18.30;99.90;;;;;;5074712;28;20405;-59
2021/06/06 11:12:34;;;;;;;39.60;32.10;;;18.20;99.90;;;;;;5074902;28;20399;-59
2021/06/06 11:15:15;;;;;;;41.80;34.07;;;18.10;99.90;;;;;;5074333;28;20402;-59
2021/06/06 11:17:41;;;;;;;38.57;29.27;;;18.00;99.90;;;;;;5074299;28;20803;-58
2021/06/06 11:20:25;;;;;;;38.63;33.53;;;18.10;99.90;;;;;;5074502;28;20400;-58
2021/06/06 11:22:51;;;;;;;44.33;34.47;;;18.10;99.90;;;;;;5074235;28;20435;-58
2021/06/06 11:25:44;;;;;;;45.27;34.53;;;18.20;99.90;;;;;;5074014;28;20417;-57
2021/06/06 11:28:22;;;;;;;42.83;35.80;;;18.20;99.90;;;;;;5074571;28;20231;-57
2021/06/06 11:30:49;;;;;;;49.20;38.83;;;18.00;99.90;;;;;;5074441;28;20416;-58
2021/06/06 11:33:43;;;;;;;48.33;38.47;;;17.90;99.90;;;;;;5074133;28;20924;-58
2021/06/06 11:36:09;;;;;;;53.87;41.00;;;17.80;99.90;;;;;;5056096;28;20428;-52
2021/06/06 11:38:41;;;;;;;53.37;40.13;;;17.80;99.90;;;;;;5074233;28;20455;-50
2021/06/06 11:41:21;;;;;;;58.23;43.13;;;18.00;99.90;;;;;;5074264;28;20752;-58
2021/06/06 11:43:54;;;;;;;62.53;48.07;;;17.90;99.90;;;;;;5074303;28;20392;-58
2021/06/06 11:46:51;;;;;;;58.00;45.03;;;17.70;99.90;;;;;;5055908;28;20467;-54
2021/06/06 11:49:54;;;;;;;52.70;39.27;;;17.80;99.90;;;;;;5068319;28;20482;-56
2021/06/06 11:52:36;;;;;;;56.77;43.47;;;17.80;99.90;;;;;;5045741;28;20423;-56
2021/06/06 11:55:07;;;;;;;49.83;40.20;;;18.00;99.90;;;;;;5053616;28;20401;-57
2021/06/06 11:57:38;;;;;;;45.63;36.63;;;17.90;99.90;;;;;;5053727;28;21021;-57
2021/06/06 12:00:07;;;;;;;58.33;44.03;;;18.00;99.90;;;;;;5071843;28;20441;-56
2021/06/06 12:02:34;;;;;;;52.00;39.80;;;18.00;99.90;;;;;;5073519;28;20468;-57
2021/06/06 12:05:23;;;;;;;51.60;40.83;;;18.20;99.90;;;;;;5073659;28;21022;-58
2021/06/06 12:07:50;;;;;;;51.83;40.83;;;18.20;99.90;;;;;;5055614;28;20514;-57
2021/06/06 12:10:29;;;;;;;46.67;39.07;;;18.10;99.90;;;;;;5073442;28;20415;-58
2021/06/06 12:12:57;;;;;;;51.13;40.50;;;18.10;99.90;;;;;;5073669;28;20397;-57
2021/06/06 12:15:36;;;;;;;55.10;44.20;;;18.20;99.90;;;;;;5073381;28;20419;-57
2021/06/06 12:18:24;;;;;;;47.13;36.70;;;18.00;99.90;;;;;;5073379;28;20455;-58
2021/06/06 12:20:51;;;;;;;42.43;34.27;;;18.10;99.90;;;;;;5074050;28;20821;-58
2021/06/06 12:23:24;;;;;;;45.23;37.20;;;18.10;99.90;;;;;;5073693;28;20763;-57
2021/06/06 12:25:50;;;;;;;41.10;33.73;;;18.10;99.90;;;;;;5073350;28;20432;-58
2021/06/06 12:28:22;;;;;;;39.53;33.07;;;18.40;99.90;;;;;;5073668;28;20478;-57
2021/06/06 12:30:51;;;;;;;41.50;32.87;;;18.40;99.90;;;;;;5073880;28;20187;-57
2021/06/06 12:33:28;;;;;;;32.73;28.60;;;18.60;99.90;;;;;;5073787;28;20438;-58
2021/06/06 12:35:59;;;;;;;36.77;31.80;;;18.40;99.90;;;;;;5073499;28;20766;-58
2021/06/06 12:38:26;;;;;;;35.27;31.47;;;18.60;99.90;;;;;;5075957;28;20444;-57
2021/06/06 12:40:52;;;;;;;36.77;31.10;;;18.80;99.90;;;;;;5077368;28;20412;-57
2021/06/06 12:43:24;;;;;;;31.17;27.60;;;18.80;99.90;;;;;;5077921;28;20412;-58
2021/06/06 12:45:50;;;;;;;39.73;34.60;;;18.70;99.90;;;;;;5077676;28;20591;-58
2021/06/06 12:48:27;;;;;;;36.43;28.77;;;18.60;99.90;;;;;;5077432;28;20408;-57
2021/06/06 12:50:54;;;;;;;36.10;30.63;;;18.60;99.90;;;;;;5077442;28;20782;-58
2021/06/06 12:53:30;;;;;;;32.10;27.83;;;18.50;99.90;;;;;;5077457;28;20396;-56
2021/06/06 12:56:11;;;;;;;38.83;31.63;;;18.60;99.90;;;;;;5077217;28;20457;-58
2021/06/06 12:58:38;;;;;;;35.20;29.00;;;18.50;99.90;;;;;;5077730;28;20526;-54